Adams, Oregon
Current Conditions -  °F | °C
As of 8:17 PM on Thursday 18 Dec 2014 (Local Time) from KPDT Reporting Station
Haze Haze  
Wind Chill: 33°   Ceiling: 8500
Heat Index: 37°   Visibility: 3mi
Dew Point: 36°   Wind: 5mph
Humidity: 96%   Direction: 80°E
Pressure: 29.89"   Gusts: NA
Location:  45.77°N, 118.56°W
Report Text: KPDT 190417Z AUTO 08004KT 3SM BR FEW055 OVC085 03/02 A2989 RMK AO2 T00280022
Loading
Personal Weather Stations






























Interactive Weather Map New forecast layout! Learn more

10-Day Weather Forecast

Advertisements
Track Severe Weather on mobile